TimeAKST,TemperatureF,Dew PointF,Humidity,Sea Level PressureIn,VisibilityMPH,Wind Direction,Wind SpeedMPH,Gust SpeedMPH,PrecipitationIn,Events,Conditions,WindDirDegrees,DateUTC
12:22 AM,28.4,24.8,86,29.33,9.0,NNW,3.5,-,0.00,Snow,Light Snow,340,2011-11-07 09:22:00
12:53 AM,28.0,25.0,88,29.34,9.0,Calm,Calm,-,0.00,,Overcast,0,2011-11-07 09:53:00
1:53 AM,26.1,23.0,88,29.37,10.0,Calm,Calm,-,N/A,,Overcast,0,2011-11-07 10:53:00
2:28 AM,26.6,24.8,93,29.37,10.0,Calm,Calm,-,N/A,,Overcast,0,2011-11-07 11:28:00
2:53 AM,27.0,24.1,89,29.38,10.0,Calm,Calm,-,N/A,,Overcast,0,2011-11-07 11:53:00
3:06 AM,26.6,24.8,93,29.38,4.0,Calm,Calm,-,0.00,Snow,Light Snow,0,2011-11-07 12:06:00
3:23 AM,26.6,24.8,93,29.38,3.0,NW,3.5,-,0.00,Snow,Light Snow,310,2011-11-07 12:23:00
3:53 AM,27.0,24.1,89,29.40,2.0,North,3.5,-,0.01,Snow,Light Snow,360,2011-11-07 12:53:00
4:53 AM,27.0,24.1,89,29.42,2.0,Calm,Calm,-,0.03,Snow,Light Snow,0,2011-11-07 13:53:00
5:29 AM,26.6,24.8,93,29.42,2.0,East,3.5,-,0.01,Snow,Light Snow,100,2011-11-07 14:29:00
5:33 AM,26.6,24.8,93,29.42,4.0,East,3.5,-,0.02,Snow,Light Snow,100,2011-11-07 14:33:00
5:53 AM,27.0,24.1,89,29.43,4.0,ENE,3.5,-,0.02,Snow,Light Snow,70,2011-11-07 14:53:00
6:17 AM,28.4,24.8,86,29.43,1.8,NNE,3.5,-,0.01,Snow,Light Snow,30,2011-11-07 15:17:00
6:19 AM,28.4,24.8,86,29.43,2.0,Variable,3.5,-,0.01,Snow,Light Snow,0,2011-11-07 15:19:00
6:30 AM,28.4,24.8,86,29.43,3.0,North,5.8,-,0.01,Snow,Light Snow,350,2011-11-07 15:30:00
6:38 AM,28.4,24.8,86,29.43,1.8,NW,5.8,-,0.01,Snow,Light Snow,320,2011-11-07 15:38:00
6:53 AM,27.0,24.1,89,29.45,1.0,NNW,8.1,-,0.02,Snow,Light Snow,340,2011-11-07 15:53:00
7:53 AM,27.0,14.0,58,29.47,1.0,North,8.1,-,0.02,,Haze,360,2011-11-07 16:53:00
8:00 AM,26.6,15.8,64,29.47,4.0,Variable,3.5,-,0.00,Snow,Light Snow,0,2011-11-07 17:00:00
8:12 AM,26.6,15.8,64,29.47,4.0,North,3.5,-,0.00,,Haze,350,2011-11-07 17:12:00
8:13 AM,26.6,15.8,64,29.47,6.0,Variable,4.6,-,0.00,,Overcast,0,2011-11-07 17:13:00
8:53 AM,26.1,10.0,51,29.49,6.0,North,6.9,-,0.00,,Overcast,360,2011-11-07 17:53:00
9:53 AM,25.0,9.0,51,29.51,10.0,North,12.7,19.6,N/A,,Overcast,10,2011-11-07 18:53:00
10:53 AM,24.1,7.0,48,29.54,10.0,NNE,6.9,16.1,N/A,,Overcast,20,2011-11-07 19:53:00
11:53 AM,24.1,9.0,53,29.57,7.0,North,6.9,-,N/A,,Overcast,10,2011-11-07 20:53:00
12:53 PM,24.1,8.1,51,29.58,10.0,North,4.6,-,N/A,,Overcast,360,2011-11-07 21:53:00
1:53 PM,21.9,9.0,58,29.60,6.0,North,11.5,-,0.00,Snow,Light Snow,360,2011-11-07 22:53:00
2:53 PM,21.9,10.9,63,29.62,10.0,NE,8.1,-,N/A,,Overcast,40,2011-11-07 23:53:00
3:53 PM,21.9,9.0,58,29.63,10.0,NE,3.5,-,N/A,,Overcast,50,2011-11-08 00:53:00
4:53 PM,21.9,5.0,48,29.65,10.0,North,6.9,-,N/A,,Overcast,10,2011-11-08 01:53:00
5:53 PM,21.0,5.0,50,29.68,10.0,NE,3.5,-,N/A,,Overcast,40,2011-11-08 02:53:00
6:53 PM,21.0,3.9,48,29.70,10.0,North,5.8,-,N/A,,Overcast,10,2011-11-08 03:53:00
7:53 PM,21.0,3.0,46,29.73,10.0,North,6.9,-,N/A,,Mostly Cloudy,10,2011-11-08 04:53:00
9:05 PM,19.4,10.4,68,29.74,1.0,North,5.8,-,0.00,Snow,Light Snow,10,2011-11-08 06:05:00
9:25 PM,19.4,10.4,68,29.75,10.0,Variable,4.6,-,0.00,,Mostly Cloudy,0,2011-11-08 06:25:00
9:41 PM,19.4,10.4,68,29.76,10.0,ENE,4.6,-,0.00,,Overcast,60,2011-11-08 06:41:00
9:53 PM,19.0,10.9,71,29.77,10.0,East,4.6,-,0.00,,Overcast,90,2011-11-08 06:53:00
10:53 PM,19.9,3.9,50,29.80,10.0,NNW,5.8,-,N/A,,Overcast,340,2011-11-08 07:53:00
11:53 PM,19.0,8.1,62,29.83,9.0,North,6.9,-,0.00,,Overcast,350,2011-11-08 08:53:00